createdAt,value
2019-03-22T00:03:21.179Z,102875.98
2019-03-22T00:05:50.553Z,102880.59
2019-03-22T00:08:20.194Z,102878.44
2019-03-22T00:11:01.733Z,102860.77
2019-03-22T00:13:31.091Z,102860.77
2019-03-22T00:16:00.464Z,102865.94
2019-03-22T00:18:42.514Z,102862.73
2019-03-22T00:21:12.075Z,102862.73
2019-03-22T00:23:41.431Z,102854.36
2019-03-22T00:26:11.108Z,102857.16
2019-03-22T00:28:40.465Z,102849.69
2019-03-22T00:31:22.888Z,102849.98
2019-03-22T00:33:52.342Z,102849.98
2019-03-22T00:36:22.011Z,102851.48
2019-03-22T00:38:51.968Z,102859.17
2019-03-22T00:41:21.355Z,102855.75
2019-03-22T00:43:50.700Z,102854.97
2019-03-22T00:46:20.220Z,102857.30
2019-03-22T00:48:49.892Z,102854.20
2019-03-22T00:51:19.260Z,102851.60
2019-03-22T00:53:48.618Z,102846.78
2019-03-22T00:56:18.331Z,102851.30
2019-03-22T00:58:48.585Z,102849.55
2019-03-22T01:01:19.588Z,102852.31
2019-03-22T01:03:49.308Z,102858.24
2019-03-22T01:06:18.692Z,102861.13
2019-03-22T01:08:49.959Z,102862.19
2019-03-22T01:11:19.643Z,102861.89
2019-03-22T01:14:08.552Z,102859.04
2019-03-22T01:16:38.239Z,102859.04
2019-03-22T01:19:07.602Z,102855.22
2019-03-22T01:21:37.233Z,102856.22
2019-03-22T01:24:06.531Z,102856.28
2019-03-22T01:26:36.373Z,102850.08
2019-03-22T01:29:05.732Z,102848.85
2019-03-22T01:31:35.357Z,102846.67
2019-03-22T01:34:04.717Z,102849.85
2019-03-22T01:36:34.249Z,102848.57
2019-03-22T01:44:44.690Z,102843.84
2019-03-22T01:47:14.381Z,102843.06
2019-03-22T01:49:43.756Z,102843.56
2019-03-22T01:52:13.369Z,102842.72
2019-03-22T01:54:42.741Z,102834.80
2019-03-22T01:57:12.512Z,102833.09
2019-03-22T01:59:41.867Z,102830.86
2019-03-22T02:02:11.415Z,102818.80
2019-03-22T02:04:41.227Z,102819.28
2019-03-22T02:07:12.274Z,102816.60
2019-03-22T02:09:41.643Z,102815.27
2019-03-22T02:12:11.309Z,102822.40
2019-03-22T02:14:40.675Z,102822.52
2019-03-22T02:17:10.355Z,102827.47
2019-03-22T02:19:39.719Z,102827.11
2019-03-22T02:22:09.345Z,102822.67
2019-03-22T02:24:38.695Z,102826.37
2019-03-22T02:27:08.365Z,102829.97
2019-03-22T02:29:39.353Z,102822.02
2019-03-22T02:32:08.729Z,102822.02
2019-03-22T02:34:38.447Z,102819.87
2019-03-22T02:37:07.809Z,102826.09
2019-03-22T02:39:49.709Z,102828.33
2019-03-22T02:42:19.363Z,102828.33
2019-03-22T02:44:49.196Z,102828.40
2019-03-22T02:47:18.556Z,102826.83
2019-03-22T02:49:49.030Z,102821.62
2019-03-22T02:52:18.392Z,102820.46
2019-03-22T02:54:48.753Z,102821.06
2019-03-22T02:57:18.124Z,102811.53
2019-03-22T03:03:03.719Z,102819.38
2019-03-22T03:08:55.771Z,102806.00
2019-03-22T03:11:25.446Z,102806.00
2019-03-22T03:13:54.824Z,102811.23
2019-03-22T03:16:24.797Z,102809.34
2019-03-22T03:18:54.741Z,102811.06
2019-03-22T03:21:24.420Z,102812.33
2019-03-22T03:23:54.116Z,102798.88
2019-03-22T03:26:23.507Z,102801.18
2019-03-22T03:28:52.885Z,102806.25
2019-03-22T03:31:22.469Z,102798.03
2019-03-22T03:33:52.143Z,102797.83
2019-03-22T03:36:21.603Z,102790.91
2019-03-22T03:38:50.959Z,102792.95
2019-03-22T03:41:20.621Z,102793.56
2019-03-22T03:43:49.981Z,102791.00
2019-03-22T03:46:19.511Z,102798.17
2019-03-22T03:48:48.932Z,102790.16
2019-03-22T03:51:18.829Z,102788.87
2019-03-22T03:53:48.988Z,102784.81
2019-03-22T03:56:18.651Z,102782.13
2019-03-22T03:58:52.685Z,102772.45
2019-03-22T04:01:39.088Z,102773.05
2019-03-22T04:04:08.526Z,102763.55
2019-03-22T04:06:38.220Z,102764.63
2019-03-22T04:12:41.761Z,102757.41
2019-03-22T04:15:11.363Z,102758.05
2019-03-22T04:17:40.748Z,102757.20
2019-03-22T04:23:10.949Z,102758.59
2019-03-22T04:25:40.627Z,102767.67
2019-03-22T04:28:10.015Z,102753.16
2019-03-22T04:30:39.929Z,102770.72
2019-03-22T04:33:09.312Z,102765.11
2019-03-22T04:35:38.717Z,102763.98
2019-03-22T04:38:08.108Z,102767.30
2019-03-22T04:40:39.078Z,102769.77
2019-03-22T04:43:08.696Z,102769.65
2019-03-22T04:52:13.956Z,102782.84
2019-03-22T04:58:18.310Z,102786.80
2019-03-22T05:00:49.016Z,102784.65
2019-03-22T05:03:59.333Z,102784.33
2019-03-22T05:15:34.919Z,102795.63
2019-03-22T05:18:44.343Z,102802.36
2019-03-22T05:24:36.781Z,102809.41
2019-03-22T05:27:06.237Z,102808.83
2019-03-22T05:32:59.219Z,102807.71
2019-03-22T05:35:29.241Z,102810.38
2019-03-22T05:37:58.894Z,102810.44
2019-03-22T05:40:28.550Z,102814.91
2019-03-22T05:42:58.225Z,102803.70
2019-03-22T05:45:27.910Z,102804.98
2019-03-22T05:47:57.284Z,102811.70
2019-03-22T05:50:27.215Z,102819.47
2019-03-22T05:52:56.878Z,102818.66
2019-03-22T05:58:20.391Z,102823.05
2019-03-22T06:00:50.322Z,102832.94
2019-03-22T06:03:20.029Z,102838.32
2019-03-22T06:05:49.645Z,102840.95
2019-03-22T06:08:19.015Z,102847.20
2019-03-22T06:10:49.229Z,102845.91
2019-03-22T06:13:18.850Z,102849.92
2019-03-22T06:15:49.205Z,102853.16
2019-03-22T06:18:18.931Z,102854.22
2019-03-22T06:20:49.343Z,102851.65
2019-03-22T06:23:19.032Z,102859.25
2019-03-22T06:25:49.371Z,102861.53
2019-03-22T06:28:18.881Z,102855.72
2019-03-22T06:30:49.252Z,102853.42
2019-03-22T06:33:19.236Z,102855.61
2019-03-22T06:35:49.405Z,102845.31
2019-03-22T06:38:19.020Z,102855.89
2019-03-22T06:40:49.355Z,102862.42
2019-03-22T06:43:19.010Z,102858.41
2019-03-22T06:45:49.269Z,102858.36
2019-03-22T06:48:31.572Z,102870.87
2019-03-22T06:51:01.312Z,102870.87
2019-03-22T06:53:30.992Z,102873.92
2019-03-22T06:56:00.755Z,102873.72
2019-03-22T06:58:30.119Z,102869.59
2019-03-22T07:01:01.255Z,102871.31
2019-03-22T07:03:42.578Z,102852.94
2019-03-22T07:06:12.185Z,102850.09
2019-03-22T07:08:41.852Z,102845.88
2019-03-22T07:11:11.228Z,102843.08
2019-03-22T07:13:40.895Z,102841.16
2019-03-22T07:16:10.268Z,102838.84
2019-03-22T07:18:39.643Z,102836.44
2019-03-22T07:21:09.155Z,102839.89
2019-03-22T07:23:38.540Z,102842.35
2019-03-22T07:26:08.150Z,102838.09
2019-03-22T07:28:37.530Z,102833.91
2019-03-22T07:33:47.192Z,102819.68
2019-03-22T07:36:35.671Z,102817.36
2019-03-22T07:42:07.220Z,102816.16
2019-03-22T07:44:36.611Z,102805.31
2019-03-22T07:47:06.266Z,102801.59
2019-03-22T07:49:35.941Z,102796.27
2019-03-22T07:52:05.596Z,102794.39
2019-03-22T07:54:35.237Z,102789.78
2019-03-22T07:57:24.328Z,102782.63
2019-03-22T07:59:54.025Z,102776.92
2019-03-22T08:02:25.493Z,102774.80
2019-03-22T08:05:53.644Z,102773.41
2019-03-22T08:08:42.436Z,102770.56
2019-03-22T08:11:12.107Z,102770.56
2019-03-22T08:13:43.160Z,102770.70
2019-03-22T08:16:12.508Z,102772.42
2019-03-22T08:18:42.190Z,102764.48
2019-03-22T08:21:11.532Z,102776.23
2019-03-22T08:26:54.694Z,102763.39
2019-03-22T08:29:24.194Z,102766.94
2019-03-22T08:31:53.537Z,102761.94
2019-03-22T08:34:23.237Z,102763.22
2019-03-22T08:36:52.584Z,102757.88
2019-03-22T08:39:22.345Z,102766.97
2019-03-22T08:41:51.691Z,102768.61
2019-03-22T08:44:21.291Z,102765.28
2019-03-22T08:46:51.313Z,102752.89
2019-03-22T08:49:20.781Z,102756.71
2019-03-22T08:54:46.438Z,102745.90
2019-03-22T08:57:15.809Z,102742.64
2019-03-22T08:59:45.336Z,102741.12
2019-03-22T09:02:14.680Z,102732.25
2019-03-22T09:04:44.400Z,102731.71
2019-03-22T09:07:13.622Z,102742.42
2019-03-22T09:09:44.574Z,102732.63
2019-03-22T09:12:14.334Z,102728.41
2019-03-22T09:14:45.265Z,102723.66
2019-03-22T09:17:14.688Z,102730.23
2019-03-22T09:19:44.329Z,102728.86
2019-03-22T09:22:13.709Z,102726.89
2019-03-22T09:24:43.386Z,102724.87
2019-03-22T09:27:12.735Z,102723.11
2019-03-22T09:29:42.316Z,102718.96
2019-03-22T09:32:11.729Z,102708.25
2019-03-22T09:34:41.370Z,102714.31
2019-03-22T09:37:10.767Z,102707.37
2019-03-22T09:39:40.329Z,102703.02
2019-03-22T09:42:09.699Z,102702.25
2019-03-22T09:44:43.591Z,102703.09
2019-03-22T09:47:29.557Z,102697.13
2019-03-22T09:49:59.548Z,102692.02
2019-03-22T09:52:28.921Z,102684.95
2019-03-22T09:55:12.129Z,102680.45
2019-03-22T09:57:38.568Z,102682.19
2019-03-22T10:00:48.897Z,102678.40
2019-03-22T10:03:24.748Z,102662.94
2019-03-22T10:05:54.442Z,102659.19
2019-03-22T10:08:23.779Z,102658.41
2019-03-22T10:10:53.691Z,102656.28
2019-03-22T10:13:23.447Z,102645.80
2019-03-22T10:15:53.013Z,102648.41
2019-03-22T10:18:22.798Z,102645.09
2019-03-22T10:20:52.483Z,102642.41
2019-03-22T10:23:22.498Z,102642.41
2019-03-22T10:26:02.656Z,102643.05
2019-03-22T10:28:32.100Z,102637.27
2019-03-22T10:31:01.888Z,102637.52
2019-03-22T10:33:31.502Z,102638.88
2019-03-22T10:36:00.970Z,102630.70
2019-03-22T10:38:32.158Z,102630.39
2019-03-22T10:41:21.020Z,102626.76
2019-03-22T10:43:50.671Z,102623.20
2019-03-22T10:46:21.666Z,102619.70
2019-03-22T10:48:51.397Z,102616.55
2019-03-22T10:51:21.649Z,102608.63
2019-03-22T10:53:57.585Z,102611.54
2019-03-22T10:56:26.904Z,102607.74
2019-03-22T10:59:04.189Z,102604.80
2019-03-22T11:01:46.521Z,102596.61
2019-03-22T11:06:39.565Z,102593.83
2019-03-22T11:09:48.985Z,102588.75
2019-03-22T11:12:19.960Z,102587.28
2019-03-22T11:14:49.924Z,102577.66
2019-03-22T11:17:19.560Z,102579.95
2019-03-22T11:19:49.923Z,102577.69
2019-03-22T11:22:20.901Z,102572.61
2019-03-22T11:24:50.624Z,102575.93
2019-03-22T11:27:21.983Z,102562.47
2019-03-22T11:30:50.142Z,102561.72
2019-03-22T11:33:19.572Z,102552.63
2019-03-22T11:35:49.912Z,102559.09
2019-03-22T11:38:19.302Z,102551.94
2019-03-22T11:40:50.600Z,102546.47
2019-03-22T11:43:19.970Z,102540.61
2019-03-22T11:45:50.061Z,102543.54
2019-03-22T11:48:19.680Z,102541.76
2019-03-22T11:50:49.974Z,102527.55
2019-03-22T11:53:19.651Z,102535.85
2019-03-22T11:55:50.067Z,102518.97
2019-03-22T11:58:19.958Z,102516.46
2019-03-22T12:00:50.071Z,102515.49
2019-03-22T12:03:19.677Z,102517.45
2019-03-22T12:05:49.972Z,102511.30
2019-03-22T12:08:19.334Z,102509.04
2019-03-22T12:10:50.096Z,102502.14
2019-03-22T12:13:19.701Z,102502.20
2019-03-22T12:15:50.256Z,102506.31
2019-03-22T12:18:19.682Z,102501.60
2019-03-22T12:20:50.097Z,102496.30
2019-03-22T12:23:19.420Z,102493.63
2019-03-22T12:25:50.145Z,102489.25
2019-03-22T12:28:19.752Z,102482.63
2019-03-22T12:30:50.189Z,102478.89
2019-03-22T12:33:19.701Z,102475.39
2019-03-22T12:35:50.068Z,102470.52
2019-03-22T12:38:19.776Z,102466.65
2019-03-22T12:40:52.242Z,102460.09
2019-03-22T12:43:21.699Z,102463.81
2019-03-22T12:45:51.415Z,102452.27
2019-03-22T12:48:20.808Z,102452.94
2019-03-22T12:50:50.511Z,102447.57
2019-03-22T12:53:19.873Z,102453.27
2019-03-22T12:55:50.125Z,102446.47
2019-03-22T12:58:19.821Z,102439.41
2019-03-22T13:00:50.204Z,102434.94
2019-03-22T13:03:19.804Z,102430.98
2019-03-22T13:05:50.194Z,102424.64
2019-03-22T13:08:19.857Z,102427.55
2019-03-22T13:10:50.329Z,102431.98
2019-03-22T13:13:19.756Z,102419.11
2019-03-22T13:15:50.487Z,102413.32
2019-03-22T13:18:19.848Z,102415.16
2019-03-22T13:20:51.158Z,102407.73
2019-03-22T13:23:40.305Z,102404.33
2019-03-22T13:26:09.979Z,102407.16
2019-03-22T13:28:39.621Z,102399.47
2019-03-22T13:31:09.327Z,102395.02
2019-03-22T13:33:38.847Z,102389.20
2019-03-22T13:36:08.224Z,102389.27
2019-03-22T13:38:37.884Z,102386.89
2019-03-22T13:41:07.509Z,102381.63
2019-03-22T13:43:37.277Z,102374.94
2019-03-22T13:46:06.917Z,102373.78
2019-03-22T13:48:36.595Z,102380.17
2019-03-22T13:51:08.243Z,102370.33
2019-03-22T13:53:37.611Z,102368.54
2019-03-22T13:56:07.043Z,102368.19
2019-03-22T13:58:36.401Z,102362.12
2019-03-22T14:01:06.087Z,102355.52
2019-03-22T14:03:35.696Z,102351.87
2019-03-22T14:06:05.380Z,102345.24
2019-03-22T14:08:35.085Z,102343.80
2019-03-22T14:11:04.466Z,102340.64
2019-03-22T14:13:33.980Z,102337.38
2019-03-22T14:16:03.356Z,102336.88
2019-03-22T14:18:32.941Z,102326.98
2019-03-22T14:21:02.617Z,102327.80
2019-03-22T14:23:32.078Z,102332.16
2019-03-22T14:26:01.500Z,102317.16
2019-03-22T14:28:31.254Z,102318.73
2019-03-22T14:31:00.631Z,102327.91
2019-03-22T14:33:29.984Z,102321.53
2019-03-22T14:35:59.651Z,102312.92
2019-03-22T14:38:29.095Z,102313.93
2019-03-22T14:40:58.452Z,102313.42
2019-03-22T14:43:28.072Z,102309.44
2019-03-22T14:45:57.442Z,102305.16
2019-03-22T14:48:27.051Z,102293.63
2019-03-22T14:50:56.433Z,102296.69
2019-03-22T14:53:26.134Z,102303.08
2019-03-22T14:55:55.568Z,102290.16
2019-03-22T14:58:25.314Z,102289.47
2019-03-22T15:00:54.991Z,102285.52
2019-03-22T15:06:20.035Z,102277.74
2019-03-22T15:08:50.338Z,102281.98
2019-03-22T15:11:19.748Z,102277.29
2019-03-22T15:17:05.250Z,102261.40
2019-03-22T15:19:53.714Z,102257.64
2019-03-22T15:22:42.225Z,102260.77
2019-03-22T15:28:26.964Z,102249.21
2019-03-22T15:31:17.545Z,102248.70
2019-03-22T15:34:07.649Z,102245.56
2019-03-22T15:36:56.630Z,102236.86
2019-03-22T15:39:45.344Z,102234.22
2019-03-22T15:42:14.702Z,102234.36
2019-03-22T15:44:44.143Z,102231.88
2019-03-22T15:47:32.616Z,102222.09
2019-03-22T15:50:02.269Z,102222.89
2019-03-22T15:52:33.594Z,102219.15
2019-03-22T15:58:03.771Z,102222.26
2019-03-22T16:00:33.225Z,102207.97
2019-03-22T16:03:02.604Z,102208.88
2019-03-22T16:05:32.110Z,102209.69
2019-03-22T16:08:01.785Z,102207.55
2019-03-22T16:10:31.403Z,102201.61
2019-03-22T16:13:00.863Z,102194.77
2019-03-22T16:15:30.220Z,102202.31
2019-03-22T16:17:59.631Z,102202.40
2019-03-22T16:20:29.204Z,102202.40
2019-03-22T16:22:58.577Z,102199.64
2019-03-22T16:25:28.227Z,102197.15
2019-03-22T16:27:57.608Z,102189.75
2019-03-22T16:30:27.262Z,102186.10
2019-03-22T16:32:58.446Z,102188.61
2019-03-22T16:35:29.415Z,102181.41
2019-03-22T16:37:58.800Z,102179.25
2019-03-22T16:40:28.345Z,102174.34
2019-03-22T16:42:57.727Z,102174.47
2019-03-22T16:45:48.035Z,102177.87
2019-03-22T16:48:17.412Z,102171.53
2019-03-22T16:50:46.763Z,102168.35
2019-03-22T16:53:17.240Z,102172.13
2019-03-22T16:55:46.849Z,102175.31
2019-03-22T16:58:16.375Z,102166.25
2019-03-22T17:00:45.735Z,102170.11
2019-03-22T17:03:15.355Z,102171.58
2019-03-22T17:05:45.821Z,102173.38
2019-03-22T17:08:15.632Z,102175.33
2019-03-22T17:10:46.853Z,102176.11
2019-03-22T17:13:16.484Z,102173.91
2019-03-22T17:15:45.840Z,102180.26
2019-03-22T17:18:15.371Z,102168.72
2019-03-22T17:20:44.753Z,102171.58
2019-03-22T17:23:14.593Z,102169.36
2019-03-22T17:25:43.966Z,102177.33
2019-03-22T17:28:13.482Z,102170.56
2019-03-22T17:30:42.850Z,102171.00
2019-03-22T17:33:12.343Z,102173.33
2019-03-22T17:35:41.967Z,102173.89
2019-03-22T17:38:11.320Z,102172.02
2019-03-22T17:40:40.698Z,102168.42
2019-03-22T17:43:10.063Z,102164.81
2019-03-22T17:45:39.436Z,102172.67
2019-03-22T17:48:08.813Z,102160.77
2019-03-22T17:50:38.453Z,102166.87
2019-03-22T17:53:08.116Z,102155.41
2019-03-22T17:55:37.500Z,102154.55
2019-03-22T17:58:06.880Z,102151.52
2019-03-22T18:00:36.566Z,102150.31
2019-03-22T18:06:15.356Z,102154.56
2019-03-22T18:08:44.740Z,102159.50
2019-03-22T18:11:14.385Z,102158.47
2019-03-22T18:13:43.771Z,102161.25
2019-03-22T18:16:13.129Z,102156.20
2019-03-22T18:18:42.511Z,102162.22
2019-03-22T18:21:11.880Z,102160.67
2019-03-22T18:23:41.467Z,102163.95
2019-03-22T18:26:30.519Z,102165.42
2019-03-22T18:29:02.063Z,102164.41
2019-03-22T18:31:31.622Z,102164.41
2019-03-22T18:34:01.032Z,102167.39
2019-03-22T18:36:30.887Z,102172.64
2019-03-22T18:39:00.499Z,102167.87
2019-03-22T18:41:31.521Z,102165.31
2019-03-22T18:44:00.874Z,102167.69
2019-03-22T18:46:30.556Z,102167.70
2019-03-22T18:49:00.066Z,102161.28
2019-03-22T18:51:29.496Z,102168.77
2019-03-22T18:53:58.888Z,102172.04
2019-03-22T18:56:28.538Z,102175.89
2019-03-22T18:58:57.916Z,102175.16
2019-03-22T19:01:27.281Z,102172.11
2019-03-22T19:03:56.912Z,102164.94
2019-03-22T19:06:26.583Z,102165.82
2019-03-22T19:08:55.947Z,102165.82
2019-03-22T19:11:25.634Z,102172.28
2019-03-22T19:13:54.991Z,102171.16
2019-03-22T19:16:25.989Z,102170.28
2019-03-22T19:18:55.673Z,102173.33
2019-03-22T19:21:25.090Z,102169.00
2019-03-22T19:23:54.756Z,102167.14
2019-03-22T19:26:24.136Z,102168.02
2019-03-22T19:28:54.103Z,102159.96
2019-03-22T19:31:23.782Z,102159.96
2019-03-22T19:33:53.157Z,102158.22
2019-03-22T19:36:22.699Z,102161.44
2019-03-22T19:38:52.064Z,102160.05
2019-03-22T19:41:21.741Z,102158.55
2019-03-22T19:43:51.118Z,102159.28
2019-03-22T19:46:20.776Z,102159.77
2019-03-22T19:48:51.135Z,102157.03
2019-03-22T19:51:20.765Z,102152.45
2019-03-22T19:53:51.135Z,102152.55
2019-03-22T19:56:33.455Z,102152.63
2019-03-22T19:59:02.818Z,102151.87
2019-03-22T20:01:32.202Z,102150.23
2019-03-22T20:04:20.903Z,102148.81
2019-03-22T20:06:51.220Z,102151.87
2019-03-22T20:09:20.717Z,102154.46
2019-03-22T20:11:51.155Z,102157.88
2019-03-22T20:14:20.765Z,102156.39
2019-03-22T20:16:51.151Z,102154.52
2019-03-22T20:22:00.090Z,102165.64
2019-03-22T20:24:29.765Z,102163.22
2019-03-22T20:26:59.155Z,102168.95
2019-03-22T20:29:28.822Z,102163.33
2019-03-22T20:31:58.498Z,102163.62
2019-03-22T20:34:27.925Z,102156.14
2019-03-22T20:36:57.326Z,102150.41
2019-03-22T20:39:28.303Z,102153.19
2019-03-22T20:41:58.024Z,102150.77
2019-03-22T20:44:33.925Z,102145.79
2019-03-22T20:47:04.124Z,102148.45
2019-03-22T20:49:33.503Z,102147.66
2019-03-22T20:52:03.209Z,102144.11
2019-03-22T20:54:32.939Z,102146.11
2019-03-22T20:57:02.390Z,102146.37
2019-03-22T21:02:34.155Z,102144.34
2019-03-22T21:05:03.574Z,102144.39
2019-03-22T21:07:33.114Z,102139.25
2019-03-22T21:10:02.483Z,102148.47
2019-03-22T21:12:31.920Z,102144.17
2019-03-22T21:15:23.531Z,102141.23
2019-03-22T21:17:44.179Z,102139.57
2019-03-22T21:20:26.159Z,102130.97
2019-03-22T21:22:55.523Z,102130.97
2019-03-22T21:25:44.125Z,102136.06
2019-03-22T21:28:13.517Z,102125.96
2019-03-22T21:30:43.089Z,102125.96
2019-03-22T21:33:12.480Z,102131.67
2019-03-22T21:35:42.079Z,102120.19
2019-03-22T21:38:11.599Z,102125.59
2019-03-22T21:40:53.168Z,102126.67
2019-03-22T21:43:18.126Z,102131.20
2019-03-22T21:45:47.556Z,102124.77
2019-03-22T21:48:18.871Z,102122.25
2019-03-22T21:50:48.268Z,102120.23
2019-03-22T21:53:17.995Z,102115.02
2019-03-22T21:55:47.381Z,102112.53
2019-03-22T21:58:29.217Z,102119.88
2019-03-22T22:00:58.600Z,102119.88
2019-03-22T22:03:28.394Z,102121.80
2019-03-22T22:05:58.060Z,102115.24
2019-03-22T22:08:27.453Z,102116.22
2019-03-22T22:10:59.997Z,102112.00
2019-03-22T22:13:34.259Z,102111.12
2019-03-22T22:16:03.631Z,102107.14
2019-03-22T22:18:33.137Z,102107.11
2019-03-22T22:21:02.510Z,102111.55
2019-03-22T22:23:33.507Z,102104.80
2019-03-22T22:26:03.343Z,102107.00
2019-03-22T22:28:32.707Z,102104.12
2019-03-22T22:31:02.166Z,102103.44
2019-03-22T22:33:31.888Z,102096.37
2019-03-22T22:36:01.264Z,102095.41
2019-03-22T22:38:30.637Z,102100.23
2019-03-22T22:41:00.304Z,102095.56
2019-03-22T22:43:29.687Z,102095.38
2019-03-22T22:45:59.392Z,102086.61
2019-03-22T22:48:29.057Z,102094.87
2019-03-22T22:50:59.001Z,102094.02
2019-03-22T22:53:28.661Z,102092.28
2019-03-22T22:55:58.674Z,102093.63
2019-03-22T23:01:33.016Z,102090.81
2019-03-22T23:04:03.040Z,102087.92
2019-03-22T23:06:32.763Z,102088.09
2019-03-22T23:09:21.768Z,102093.59
2019-03-22T23:11:51.653Z,102086.46
2019-03-22T23:14:21.245Z,102085.97
2019-03-22T23:16:51.535Z,102086.58
2019-03-22T23:19:23.331Z,102085.81
2019-03-22T23:21:52.721Z,102085.72
2019-03-22T23:24:22.192Z,102084.48
2019-03-22T23:27:03.684Z,102079.02
2019-03-22T23:29:46.190Z,102079.02
2019-03-22T23:32:15.561Z,102077.35
2019-03-22T23:35:05.323Z,102071.11
2019-03-22T23:37:34.714Z,102071.11
2019-03-22T23:43:24.621Z,102072.17
2019-03-22T23:45:54.334Z,102071.32
2019-03-22T23:48:24.029Z,102067.16
2019-03-22T23:51:12.937Z,102066.20
2019-03-22T23:53:42.455Z,102060.52
2019-03-22T23:56:12.112Z,102061.30
2019-03-22T23:58:41.503Z,102058.78
